sensor_id;sensor_type;location;lat;lon;timestamp;pressure;altitude;pressure_sealevel;temperature;humidity
13695;BME280;6919;52.344;14.518;2023-02-19T00:02:09;100549.19;;;5.90;100.00
13695;BME280;6919;52.344;14.518;2023-02-19T00:04:38;100549.13;;;5.81;100.00
13695;BME280;6919;52.344;14.518;2023-02-19T00:07:06;100548.47;;;5.77;100.00
13695;BME280;6919;52.344;14.518;2023-02-19T00:09:35;100548.84;;;5.73;100.00
13695;BME280;6919;52.344;14.518;2023-02-19T00:12:04;100551.41;;;5.85;100.00
13695;BME280;6919;52.344;14.518;2023-02-19T00:14:33;100554.19;;;5.84;100.00
13695;BME280;6919;52.344;14.518;2023-02-19T00:17:03;100549.81;;;5.72;100.00
13695;BME280;6919;52.344;14.518;2023-02-19T00:19:31;100551.16;;;5.66;100.00
13695;BME280;6919;52.344;14.518;2023-02-19T00:22:00;100536.66;;;5.59;100.00
13695;BME280;6919;52.344;14.518;2023-02-19T00:24:29;100550.22;;;5.56;100.00
13695;BME280;6919;52.344;14.518;2023-02-19T00:26:57;100547.44;;;5.58;100.00
13695;BME280;6919;52.344;14.518;2023-02-19T00:29:27;100547.09;;;5.51;100.00
13695;BME280;6919;52.344;14.518;2023-02-19T00:31:55;100545.75;;;5.57;100.00
13695;BME280;6919;52.344;14.518;2023-02-19T00:34:25;100536.53;;;5.61;100.00
13695;BME280;6919;52.344;14.518;2023-02-19T00:36:54;100549.38;;;5.56;100.00
13695;BME280;6919;52.344;14.518;2023-02-19T00:39:23;100550.34;;;5.66;100.00
13695;BME280;6919;52.344;14.518;2023-02-19T00:41:52;100544.16;;;5.65;100.00
13695;BME280;6919;52.344;14.518;2023-02-19T00:44:20;100540.88;;;5.62;100.00
13695;BME280;6919;52.344;14.518;2023-02-19T00:46:49;100541.63;;;5.64;100.00
13695;BME280;6919;52.344;14.518;2023-02-19T00:49:19;100536.53;;;5.61;100.00
13695;BME280;6919;52.344;14.518;2023-02-19T00:51:51;100535.69;;;5.60;100.00
13695;BME280;6919;52.344;14.518;2023-02-19T00:54:20;100532.81;;;5.52;100.00
13695;BME280;6919;52.344;14.518;2023-02-19T00:56:50;100528.44;;;5.62;100.00
13695;BME280;6919;52.344;14.518;2023-02-19T00:59:19;100522.38;;;5.60;100.00
13695;BME280;6919;52.344;14.518;2023-02-19T01:01:47;100523.97;;;5.63;100.00
13695;BME280;6919;52.344;14.518;2023-02-19T01:04:17;100523.97;;;5.63;100.00
13695;BME280;6919;52.344;14.518;2023-02-19T01:06:45;100526.75;;;5.61;100.00
13695;BME280;6919;52.344;14.518;2023-02-19T01:09:16;100522.75;;;5.67;100.00
13695;BME280;6919;52.344;14.518;2023-02-19T01:11:45;100520.94;;;5.67;100.00
13695;BME280;6919;52.344;14.518;2023-02-19T01:14:14;100521.91;;;5.66;100.00
13695;BME280;6919;52.344;14.518;2023-02-19T01:16:42;100524.81;;;5.63;100.00
13695;BME280;6919;52.344;14.518;2023-02-19T01:19:11;100520.59;;;5.61;100.00
13695;BME280;6919;52.344;14.518;2023-02-19T01:21:40;100527.34;;;5.65;100.00
13695;BME280;6919;52.344;14.518;2023-02-19T01:24:09;100525.09;;;5.49;100.00
13695;BME280;6919;52.344;14.518;2023-02-19T01:26:39;100518.69;;;5.52;100.00
13695;BME280;6919;52.344;14.518;2023-02-19T01:29:08;100519.72;;;5.60;100.00
13695;BME280;6919;52.344;14.518;2023-02-19T01:31:38;100513.72;;;5.58;100.00
13695;BME280;6919;52.344;14.518;2023-02-19T01:34:10;100515.88;;;5.64;100.00
13695;BME280;6919;52.344;14.518;2023-02-19T01:36:39;100514.66;;;5.68;100.00
13695;BME280;6919;52.344;14.518;2023-02-19T01:39:09;100508.28;;;5.60;100.00
13695;BME280;6919;52.344;14.518;2023-02-19T01:41:40;100502.84;;;5.61;100.00
13695;BME280;6919;52.344;14.518;2023-02-19T01:47:11;100496.63;;;5.72;100.00
13695;BME280;6919;52.344;14.518;2023-02-19T01:49:43;100484.19;;;5.72;100.00
13695;BME280;6919;52.344;14.518;2023-02-19T01:52:18;100475.47;;;5.70;100.00
13695;BME280;6919;52.344;14.518;2023-02-19T01:54:49;100468.47;;;5.69;100.00
13695;BME280;6919;52.344;14.518;2023-02-19T01:57:22;100468.84;;;5.65;100.00
13695;BME280;6919;52.344;14.518;2023-02-19T01:59:53;100456.38;;;5.65;100.00
13695;BME280;6919;52.344;14.518;2023-02-19T02:02:24;100449.50;;;5.63;100.00
13695;BME280;6919;52.344;14.518;2023-02-19T02:04:55;100448.66;;;5.62;100.00
13695;BME280;6919;52.344;14.518;2023-02-19T02:07:24;100443.34;;;5.62;100.00
13695;BME280;6919;52.344;14.518;2023-02-19T02:10:11;100438.63;;;5.66;100.00
13695;BME280;6919;52.344;14.518;2023-02-19T02:12:51;100431.72;;;5.63;100.00
13695;BME280;6919;52.344;14.518;2023-02-19T02:15:19;100429.75;;;5.76;100.00
13695;BME280;6919;52.344;14.518;2023-02-19T02:17:55;100416.09;;;5.81;100.00
13695;BME280;6919;52.344;14.518;2023-02-19T02:20:34;100416.91;;;5.81;100.00
13695;BME280;6919;52.344;14.518;2023-02-19T02:23:12;100435.00;;;5.67;100.00
13695;BME280;6919;52.344;14.518;2023-02-19T02:25:58;100437.97;;;5.73;100.00
13695;BME280;6919;52.344;14.518;2023-02-19T02:28:56;100441.13;;;5.67;100.00
13695;BME280;6919;52.344;14.518;2023-02-19T02:31:34;100439.44;;;5.66;100.00
13695;BME280;6919;52.344;14.518;2023-02-19T02:34:11;100449.97;;;5.68;100.00
13695;BME280;6919;52.344;14.518;2023-02-19T02:36:43;100431.94;;;5.71;100.00
13695;BME280;6919;52.344;14.518;2023-02-19T02:39:17;100418.78;;;5.70;100.00
13695;BME280;6919;52.344;14.518;2023-02-19T02:41:50;100416.88;;;5.61;100.00
13695;BME280;6919;52.344;14.518;2023-02-19T02:44:40;100408.63;;;5.64;100.00
13695;BME280;6919;52.344;14.518;2023-02-19T02:47:32;100413.72;;;5.67;100.00
13695;BME280;6919;52.344;14.518;2023-02-19T02:50:10;100409.75;;;5.61;100.00
13695;BME280;6919;52.344;14.518;2023-02-19T02:52:40;100417.03;;;5.48;100.00
13695;BME280;6919;52.344;14.518;2023-02-19T02:55:30;100419.66;;;5.59;100.00
13695;BME280;6919;52.344;14.518;2023-02-19T02:58:02;100418.94;;;5.57;100.00
13695;BME280;6919;52.344;14.518;2023-02-19T03:00:33;100423.03;;;5.61;100.00
13695;BME280;6919;52.344;14.518;2023-02-19T03:03:23;100428.94;;;5.65;100.00
13695;BME280;6919;52.344;14.518;2023-02-19T03:05:57;100428.63;;;5.58;100.00
13695;BME280;6919;52.344;14.518;2023-02-19T03:08:30;100422.31;;;5.59;100.00
13695;BME280;6919;52.344;14.518;2023-02-19T03:11:04;100430.66;;;5.55;100.00
13695;BME280;6919;52.344;14.518;2023-02-19T03:13:47;100421.22;;;5.62;100.00
13695;BME280;6919;52.344;14.518;2023-02-19T03:16:37;100422.50;;;5.67;100.00
13695;BME280;6919;52.344;14.518;2023-02-19T03:19:27;100430.59;;;5.77;100.00
13695;BME280;6919;52.344;14.518;2023-02-19T03:22:00;100429.75;;;5.76;100.00
13695;BME280;6919;52.344;14.518;2023-02-19T03:24:40;100431.53;;;5.76;100.00
13695;BME280;6919;52.344;14.518;2023-02-19T03:27:29;100423.63;;;5.65;100.00
13695;BME280;6919;52.344;14.518;2023-02-19T03:30:02;100418.28;;;5.65;100.00
13695;BME280;6919;52.344;14.518;2023-02-19T03:32:37;100414.69;;;5.66;100.00
13695;BME280;6919;52.344;14.518;2023-02-19T03:35:12;100418.66;;;5.60;100.00
13695;BME280;6919;52.344;14.518;2023-02-19T03:37:44;100426.41;;;5.63;100.00
13695;BME280;6919;52.344;14.518;2023-02-19T03:40:14;100417.25;;;5.56;100.00
13695;BME280;6919;52.344;14.518;2023-02-19T03:42:50;100423.66;;;5.54;100.00
13695;BME280;6919;52.344;14.518;2023-02-19T03:45:42;100418.34;;;5.54;100.00
13695;BME280;6919;52.344;14.518;2023-02-19T03:48:22;100431.28;;;5.58;100.00
13695;BME280;6919;52.344;14.518;2023-02-19T03:53:50;100438.75;;;5.53;100.00
13695;BME280;6919;52.344;14.518;2023-02-19T03:56:26;100443.66;;;5.37;100.00
13695;BME280;6919;52.344;14.518;2023-02-19T03:58:58;100444.66;;;5.36;100.00
13695;BME280;6919;52.344;14.518;2023-02-19T04:01:33;100442.72;;;5.27;100.00
13695;BME280;6919;52.344;14.518;2023-02-19T04:04:08;100441.91;;;5.16;100.00
13695;BME280;6919;52.344;14.518;2023-02-19T04:06:42;100445.31;;;5.07;100.00
13695;BME280;6919;52.344;14.518;2023-02-19T04:09:14;100441.69;;;4.97;100.00
13695;BME280;6919;52.344;14.518;2023-02-19T04:11:44;100443.63;;;4.95;100.00
13695;BME280;6919;52.344;14.518;2023-02-19T04:14:15;100452.81;;;4.91;100.00
13695;BME280;6919;52.344;14.518;2023-02-19T04:16:48;100433.63;;;4.87;100.00
13695;BME280;6919;52.344;14.518;2023-02-19T04:19:20;100429.75;;;4.91;100.00
13695;BME280;6919;52.344;14.518;2023-02-19T04:21:53;100435.91;;;4.81;100.00
13695;BME280;6919;52.344;14.518;2023-02-19T04:24:27;100442.06;;;4.70;100.00
13695;BME280;6919;52.344;14.518;2023-02-19T04:26:57;100443.28;;;4.77;100.00
13695;BME280;6919;52.344;14.518;2023-02-19T04:29:26;100441.09;;;4.82;100.00
13695;BME280;6919;52.344;14.518;2023-02-19T04:31:54;100444.59;;;4.83;100.00
13695;BME280;6919;52.344;14.518;2023-02-19T04:34:23;100440.28;;;4.71;100.00
13695;BME280;6919;52.344;14.518;2023-02-19T04:36:53;100448.72;;;4.76;100.00
13695;BME280;6919;52.344;14.518;2023-02-19T04:39:21;100455.13;;;4.84;100.00
13695;BME280;6919;52.344;14.518;2023-02-19T04:41:50;100453.91;;;4.77;100.00
13695;BME280;6919;52.344;14.518;2023-02-19T04:44:19;100451.03;;;4.58;100.00
13695;BME280;6919;52.344;14.518;2023-02-19T04:46:48;100457.91;;;4.61;100.00
13695;BME280;6919;52.344;14.518;2023-02-19T04:49:16;100456.56;;;4.44;100.00
13695;BME280;6919;52.344;14.518;2023-02-19T04:51:45;100451.47;;;4.41;100.00
13695;BME280;6919;52.344;14.518;2023-02-19T04:54:15;100465.00;;;4.49;100.00
13695;BME280;6919;52.344;14.518;2023-02-19T04:56:43;100461.34;;;4.39;100.00
13695;BME280;6919;52.344;14.518;2023-02-19T04:59:12;100462.09;;;4.41;100.00
13695;BME280;6919;52.344;14.518;2023-02-19T05:01:41;100464.63;;;4.32;100.00
13695;BME280;6919;52.344;14.518;2023-02-19T05:04:09;100462.34;;;4.38;100.00
13695;BME280;6919;52.344;14.518;2023-02-19T05:06:38;100450.22;;;4.12;100.00
13695;BME280;6919;52.344;14.518;2023-02-19T05:09:07;100451.69;;;4.16;100.00
13695;BME280;6919;52.344;14.518;2023-02-19T05:11:37;100458.19;;;4.12;100.00
13695;BME280;6919;52.344;14.518;2023-02-19T05:14:06;100458.53;;;4.08;100.00
13695;BME280;6919;52.344;14.518;2023-02-19T05:16:34;100468.41;;;4.06;100.00
13695;BME280;6919;52.344;14.518;2023-02-19T05:19:03;100474.78;;;4.03;100.00
13695;BME280;6919;52.344;14.518;2023-02-19T05:21:31;100476.25;;;4.07;100.00
13695;BME280;6919;52.344;14.518;2023-02-19T05:24:00;100472.03;;;4.05;100.00
13695;BME280;6919;52.344;14.518;2023-02-19T05:26:29;100468.38;;;3.95;100.00
13695;BME280;6919;52.344;14.518;2023-02-19T05:28:59;100480.13;;;3.80;100.00
13695;BME280;6919;52.344;14.518;2023-02-19T05:31:28;100476.38;;;3.71;100.00
13695;BME280;6919;52.344;14.518;2023-02-19T05:33:57;100484.38;;;3.82;100.00
13695;BME280;6919;52.344;14.518;2023-02-19T05:36:25;100488.91;;;3.80;100.00
13695;BME280;6919;52.344;14.518;2023-02-19T05:38:55;100489.44;;;3.85;100.00
13695;BME280;6919;52.344;14.518;2023-02-19T05:41:26;100495.22;;;3.90;100.00
13695;BME280;6919;52.344;14.518;2023-02-19T05:43:55;100493.00;;;3.73;100.00
13695;BME280;6919;52.344;14.518;2023-02-19T05:46:27;100496.88;;;3.80;100.00
13695;BME280;6919;52.344;14.518;2023-02-19T05:48:57;100493.25;;;3.70;100.00
13695;BME280;6919;52.344;14.518;2023-02-19T05:51:26;100497.09;;;3.66;100.00
13695;BME280;6919;52.344;14.518;2023-02-19T05:53:56;100493.63;;;3.53;100.00
13695;BME280;6919;52.344;14.518;2023-02-19T05:56:31;100501.75;;;3.63;100.00
13695;BME280;6919;52.344;14.518;2023-02-19T05:59:02;100492.72;;;3.65;100.00
13695;BME280;6919;52.344;14.518;2023-02-19T06:01:34;100490.06;;;3.65;100.00
13695;BME280;6919;52.344;14.518;2023-02-19T06:04:03;100498.03;;;3.65;100.00
13695;BME280;6919;52.344;14.518;2023-02-19T06:06:32;100504.91;;;3.68;100.00
13695;BME280;6919;52.344;14.518;2023-02-19T06:09:00;100501.63;;;3.64;100.00
13695;BME280;6919;52.344;14.518;2023-02-19T06:11:29;100503.53;;;3.62;100.00
13695;BME280;6919;52.344;14.518;2023-02-19T06:13:58;100499.97;;;3.63;100.00
13695;BME280;6919;52.344;14.518;2023-02-19T06:16:26;100504.00;;;3.56;100.00
13695;BME280;6919;52.344;14.518;2023-02-19T06:18:56;100513.66;;;3.57;100.00
13695;BME280;6919;52.344;14.518;2023-02-19T06:21:25;100512.34;;;3.63;100.00
13695;BME280;6919;52.344;14.518;2023-02-19T06:23:54;100513.00;;;3.66;100.00
13695;BME280;6919;52.344;14.518;2023-02-19T06:26:23;100519.16;;;3.78;100.00
13695;BME280;6919;52.344;14.518;2023-02-19T06:28:52;100521.09;;;3.76;100.00
13695;BME280;6919;52.344;14.518;2023-02-19T06:31:22;100518.84;;;3.59;100.00
13695;BME280;6919;52.344;14.518;2023-02-19T06:33:50;100516.56;;;3.65;100.00
13695;BME280;6919;52.344;14.518;2023-02-19T06:36:21;100517.31;;;3.67;100.00
13695;BME280;6919;52.344;14.518;2023-02-19T06:38:50;100519.00;;;3.68;100.00
13695;BME280;6919;52.344;14.518;2023-02-19T06:41:19;100521.44;;;3.71;100.00
13695;BME280;6919;52.344;14.518;2023-02-19T06:43:48;100519.66;;;3.72;100.00
13695;BME280;6919;52.344;14.518;2023-02-19T06:46:16;100528.69;;;3.80;100.00
13695;BME280;6919;52.344;14.518;2023-02-19T06:48:45;100534.31;;;3.88;100.00
13695;BME280;6919;52.344;14.518;2023-02-19T06:51:16;100525.44;;;3.77;100.00
13695;BME280;6919;52.344;14.518;2023-02-19T06:53:47;100531.88;;;3.85;100.00
13695;BME280;6919;52.344;14.518;2023-02-19T06:56:24;100537.78;;;3.89;100.00
13695;BME280;6919;52.344;14.518;2023-02-19T06:58:55;100545.63;;;3.90;100.00
13695;BME280;6919;52.344;14.518;2023-02-19T07:01:24;100542.94;;;3.79;100.00
13695;BME280;6919;52.344;14.518;2023-02-19T07:03:53;100552.91;;;3.99;100.00
13695;BME280;6919;52.344;14.518;2023-02-19T07:06:23;100552.97;;;3.87;100.00
13695;BME280;6919;52.344;14.518;2023-02-19T07:08:54;100560.81;;;3.88;100.00
13695;BME280;6919;52.344;14.518;2023-02-19T07:11:23;100560.00;;;3.99;100.00
13695;BME280;6919;52.344;14.518;2023-02-19T07:13:54;100569.16;;;3.95;100.00
13695;BME280;6919;52.344;14.518;2023-02-19T07:16:23;100570.31;;;3.80;100.00
13695;BME280;6919;52.344;14.518;2023-02-19T07:18:54;100571.81;;;3.95;100.00
13695;BME280;6919;52.344;14.518;2023-02-19T07:21:23;100571.72;;;3.96;100.00
13695;BME280;6919;52.344;14.518;2023-02-19T07:23:53;100576.78;;;3.99;100.00
13695;BME280;6919;52.344;14.518;2023-02-19T07:26:22;100579.59;;;4.09;100.00
13695;BME280;6919;52.344;14.518;2023-02-19T07:28:51;100576.16;;;3.96;100.00
13695;BME280;6919;52.344;14.518;2023-02-19T07:31:22;100582.09;;;3.99;100.00
13695;BME280;6919;52.344;14.518;2023-02-19T07:33:52;100599.84;;;4.10;100.00
13695;BME280;6919;52.344;14.518;2023-02-19T07:36:22;100599.41;;;4.16;100.00
13695;BME280;6919;52.344;14.518;2023-02-19T07:38:56;100601.22;;;4.39;100.00
13695;BME280;6919;52.344;14.518;2023-02-19T07:41:26;100610.81;;;4.29;100.00
13695;BME280;6919;52.344;14.518;2023-02-19T07:43:54;100601.72;;;4.20;100.00
13695;BME280;6919;52.344;14.518;2023-02-19T07:46:24;100611.59;;;4.18;100.00
13695;BME280;6919;52.344;14.518;2023-02-19T07:48:52;100613.34;;;4.30;100.00
13695;BME280;6919;52.344;14.518;2023-02-19T07:51:21;100616.50;;;4.35;100.00
13695;BME280;6919;52.344;14.518;2023-02-19T07:53:50;100620.34;;;4.31;100.00
13695;BME280;6919;52.344;14.518;2023-02-19T07:56:20;100623.13;;;4.30;100.00
13695;BME280;6919;52.344;14.518;2023-02-19T07:58:49;100626.81;;;4.51;100.00
13695;BME280;6919;52.344;14.518;2023-02-19T08:01:19;100637.81;;;4.57;100.00
13695;BME280;6919;52.344;14.518;2023-02-19T08:04:12;100634.91;;;4.49;100.00
13695;BME280;6919;52.344;14.518;2023-02-19T08:06:40;100647.25;;;4.61;100.00
13695;BME280;6919;52.344;14.518;2023-02-19T08:09:09;100637.72;;;4.59;100.00
13695;BME280;6919;52.344;14.518;2023-02-19T08:11:39;100638.72;;;4.69;100.00
13695;BME280;6919;52.344;14.518;2023-02-19T08:14:25;100642.97;;;4.82;100.00
13695;BME280;6919;52.344;14.518;2023-02-19T08:16:55;100654.00;;;4.89;100.00
13695;BME280;6919;52.344;14.518;2023-02-19T08:19:23;100655.63;;;4.68;100.00
13695;BME280;6919;52.344;14.518;2023-02-19T08:21:52;100664.78;;;5.09;100.00
13695;BME280;6919;52.344;14.518;2023-02-19T08:24:21;100668.19;;;5.11;100.00
13695;BME280;6919;52.344;14.518;2023-02-19T08:26:51;100667.91;;;5.14;100.00
13695;BME280;6919;52.344;14.518;2023-02-19T08:29:19;100672.06;;;5.29;100.00
13695;BME280;6919;52.344;14.518;2023-02-19T08:31:48;100674.09;;;5.26;100.00
13695;BME280;6919;52.344;14.518;2023-02-19T08:34:17;100677.03;;;5.45;100.00
13695;BME280;6919;52.344;14.518;2023-02-19T08:36:45;100677.50;;;5.50;100.00
13695;BME280;6919;52.344;14.518;2023-02-19T08:39:14;100688.16;;;5.61;100.00
13695;BME280;6919;52.344;14.518;2023-02-19T08:41:42;100697.44;;;5.77;100.00
13695;BME280;6919;52.344;14.518;2023-02-19T08:44:12;100695.31;;;5.71;100.00
13695;BME280;6919;52.344;14.518;2023-02-19T08:46:41;100698.78;;;5.61;100.00
13695;BME280;6919;52.344;14.518;2023-02-19T08:49:10;100715.38;;;5.64;100.00
13695;BME280;6919;52.344;14.518;2023-02-19T08:51:38;100717.53;;;5.70;100.00
13695;BME280;6919;52.344;14.518;2023-02-19T08:54:07;100725.63;;;5.69;100.00
13695;BME280;6919;52.344;14.518;2023-02-19T08:56:36;100731.81;;;5.80;100.00
13695;BME280;6919;52.344;14.518;2023-02-19T08:59:04;100742.72;;;5.88;100.00
13695;BME280;6919;52.344;14.518;2023-02-19T09:01:34;100739.94;;;6.01;100.00
13695;BME280;6919;52.344;14.518;2023-02-19T09:04:03;100738.34;;;5.98;100.00
13695;BME280;6919;52.344;14.518;2023-02-19T09:06:32;100742.59;;;5.90;100.00
13695;BME280;6919;52.344;14.518;2023-02-19T09:09:00;100746.13;;;5.90;100.00
13695;BME280;6919;52.344;14.518;2023-02-19T09:11:29;100751.31;;;5.81;100.00
13695;BME280;6919;52.344;14.518;2023-02-19T09:13:57;100757.88;;;5.53;100.00
13695;BME280;6919;52.344;14.518;2023-02-19T09:16:26;100768.09;;;5.81;100.00
13695;BME280;6919;52.344;14.518;2023-02-19T09:18:56;100766.84;;;5.63;100.00
13695;BME280;6919;52.344;14.518;2023-02-19T09:21:25;100769.91;;;5.70;100.00
13695;BME280;6919;52.344;14.518;2023-02-19T09:23:54;100778.59;;;5.61;100.00
13695;BME280;6919;52.344;14.518;2023-02-19T09:26:22;100783.59;;;5.87;100.00
13695;BME280;6919;52.344;14.518;2023-02-19T09:28:51;100786.78;;;5.92;100.00
13695;BME280;6919;52.344;14.518;2023-02-19T09:31:20;100778.47;;;5.73;100.00
13695;BME280;6919;52.344;14.518;2023-02-19T09:33:49;100789.28;;;5.94;100.00
13695;BME280;6919;52.344;14.518;2023-02-19T09:36:19;100792.09;;;5.92;100.00
13695;BME280;6919;52.344;14.518;2023-02-19T09:38:48;100798.13;;;5.94;100.00
13695;BME280;6919;52.344;14.518;2023-02-19T09:41:23;100800.44;;;5.88;100.00
13695;BME280;6919;52.344;14.518;2023-02-19T09:43:53;100804.03;;;5.87;100.00
13695;BME280;6919;52.344;14.518;2023-02-19T09:46:26;100792.44;;;6.21;100.00
13695;BME280;6919;52.344;14.518;2023-02-19T09:49:02;100808.28;;;6.12;100.00
13695;BME280;6919;52.344;14.518;2023-02-19T09:51:36;100798.00;;;6.18;100.00
13695;BME280;6919;52.344;14.518;2023-02-19T09:54:19;100793.03;;;6.36;100.00
13695;BME280;6919;52.344;14.518;2023-02-19T09:56:49;100807.41;;;6.33;100.00
13695;BME280;6919;52.344;14.518;2023-02-19T09:59:21;100803.69;;;6.47;100.00
13695;BME280;6919;52.344;14.518;2023-02-19T10:01:55;100810.06;;;6.66;100.00
13695;BME280;6919;52.344;14.518;2023-02-19T10:04:25;100810.53;;;6.60;100.00
13695;BME280;6919;52.344;14.518;2023-02-19T10:06:57;100817.00;;;6.36;100.00
13695;BME280;6919;52.344;14.518;2023-02-19T10:09:30;100819.53;;;6.48;100.00
13695;BME280;6919;52.344;14.518;2023-02-19T10:11:58;100821.97;;;6.51;100.00
13695;BME280;6919;52.344;14.518;2023-02-19T10:14:32;100818.69;;;6.48;100.00
13695;BME280;6919;52.344;14.518;2023-02-19T10:17:04;100832.63;;;6.51;100.00
13695;BME280;6919;52.344;14.518;2023-02-19T10:19:34;100828.22;;;6.50;100.00
13695;BME280;6919;52.344;14.518;2023-02-19T10:22:04;100838.50;;;6.66;100.00
13695;BME280;6919;52.344;14.518;2023-02-19T10:24:41;100838.00;;;6.83;100.00
13695;BME280;6919;52.344;14.518;2023-02-19T10:27:11;100850.22;;;6.85;100.00
13695;BME280;6919;52.344;14.518;2023-02-19T10:29:42;100853.03;;;6.73;100.00
13695;BME280;6919;52.344;14.518;2023-02-19T10:32:13;100853.28;;;6.70;100.00
13695;BME280;6919;52.344;14.518;2023-02-19T10:34:44;100860.63;;;6.88;100.00
13695;BME280;6919;52.344;14.518;2023-02-19T10:37:16;100860.31;;;6.71;100.00
13695;BME280;6919;52.344;14.518;2023-02-19T10:39:47;100854.50;;;6.66;100.00
13695;BME280;6919;52.344;14.518;2023-02-19T10:42:19;100862.03;;;6.50;100.00
13695;BME280;6919;52.344;14.518;2023-02-19T10:44:52;100860.69;;;6.55;100.00
13695;BME280;6919;52.344;14.518;2023-02-19T10:47:26;100863.94;;;6.59;100.00
13695;BME280;6919;52.344;14.518;2023-02-19T10:49:57;100877.50;;;6.67;100.00
13695;BME280;6919;52.344;14.518;2023-02-19T10:52:33;100883.31;;;6.72;100.00
13695;BME280;6919;52.344;14.518;2023-02-19T10:55:15;100889.13;;;6.66;100.00
13695;BME280;6919;52.344;14.518;2023-02-19T10:57:44;100889.84;;;6.79;100.00
13695;BME280;6919;52.344;14.518;2023-02-19T11:00:21;100884.28;;;6.82;100.00
13695;BME280;6919;52.344;14.518;2023-02-19T11:03:17;100890.06;;;6.98;100.00
13695;BME280;6919;52.344;14.518;2023-02-19T11:05:58;100921.06;;;7.10;100.00
13695;BME280;6919;52.344;14.518;2023-02-19T11:08:30;100912.84;;;6.91;100.00
13695;BME280;6919;52.344;14.518;2023-02-19T11:11:01;100910.53;;;6.86;100.00
13695;BME280;6919;52.344;14.518;2023-02-19T11:13:32;100921.66;;;7.13;100.00
13695;BME280;6919;52.344;14.518;2023-02-19T11:16:04;100921.88;;;7.21;100.00
13695;BME280;6919;52.344;14.518;2023-02-19T11:18:34;100932.25;;;7.35;100.00
13695;BME280;6919;52.344;14.518;2023-02-19T11:21:04;100928.78;;;7.24;100.00
13695;BME280;6919;52.344;14.518;2023-02-19T11:23:37;100939.72;;;7.10;100.00
13695;BME280;6919;52.344;14.518;2023-02-19T11:26:16;100939.09;;;7.17;100.00
13695;BME280;6919;52.344;14.518;2023-02-19T11:28:55;100933.84;;;7.38;100.00
13695;BME280;6919;52.344;14.518;2023-02-19T11:31:28;100950.56;;;7.40;100.00
13695;BME280;6919;52.344;14.518;2023-02-19T11:34:21;100947.97;;;7.49;100.00
13695;BME280;6919;52.344;14.518;2023-02-19T11:37:11;100939.63;;;7.11;100.00
13695;BME280;6919;52.344;14.518;2023-02-19T11:39:44;100948.16;;;7.26;100.00
13695;BME280;6919;52.344;14.518;2023-02-19T11:42:29;100951.03;;;6.80;100.00
13695;BME280;6919;52.344;14.518;2023-02-19T11:45:27;100950.13;;;7.02;100.00
13695;BME280;6919;52.344;14.518;2023-02-19T11:48:30;100948.94;;;7.06;100.00
13695;BME280;6919;52.344;14.518;2023-02-19T11:51:15;100951.72;;;6.93;100.00
13695;BME280;6919;52.344;14.518;2023-02-19T11:53:56;100950.13;;;7.02;100.00
13695;BME280;6919;52.344;14.518;2023-02-19T11:56:34;100957.63;;;7.30;100.00
13695;BME280;6919;52.344;14.518;2023-02-19T11:59:06;100969.88;;;7.32;100.00
13695;BME280;6919;52.344;14.518;2023-02-19T12:02:06;100968.97;;;7.43;100.00
13695;BME280;6919;52.344;14.518;2023-02-19T12:05:02;100971.94;;;7.29;100.00
13695;BME280;6919;52.344;14.518;2023-02-19T12:10:46;100974.84;;;7.26;100.00
13695;BME280;6919;52.344;14.518;2023-02-19T12:13:25;100975.09;;;7.23;100.00
13695;BME280;6919;52.344;14.518;2023-02-19T12:16:05;100981.44;;;7.53;100.00
13695;BME280;6919;52.344;14.518;2023-02-19T12:18:56;100984.22;;;7.63;100.00
13695;BME280;6919;52.344;14.518;2023-02-19T12:21:42;100979.78;;;7.73;100.00
13695;BME280;6919;52.344;14.518;2023-02-19T12:27:25;100991.56;;;7.70;100.00
13695;BME280;6919;52.344;14.518;2023-02-19T12:30:24;100987.84;;;7.93;100.00
13695;BME280;6919;52.344;14.518;2023-02-19T12:33:37;100982.00;;;7.68;100.00
13695;BME280;6919;52.344;14.518;2023-02-19T12:36:18;100989.81;;;7.91;100.00
13695;BME280;6919;52.344;14.518;2023-02-19T12:38:56;100984.47;;;7.91;100.00
13695;BME280;6919;52.344;14.518;2023-02-19T12:41:34;100991.22;;;7.95;100.00
13695;BME280;6919;52.344;14.518;2023-02-19T12:44:10;100979.69;;;8.26;100.00
13695;BME280;6919;52.344;14.518;2023-02-19T12:46:46;100983.84;;;8.40;100.00
13695;BME280;6919;52.344;14.518;2023-02-19T12:49:21;100986.53;;;8.60;100.00
13695;BME280;6919;52.344;14.518;2023-02-19T12:51:54;100996.63;;;8.57;100.00
13695;BME280;6919;52.344;14.518;2023-02-19T12:54:28;100989.09;;;9.01;100.00
13695;BME280;6919;52.344;14.518;2023-02-19T12:57:01;100982.13;;;8.80;100.00
13695;BME280;6919;52.344;14.518;2023-02-19T12:59:34;100983.59;;;8.63;100.00
13695;BME280;6919;52.344;14.518;2023-02-19T13:02:14;100983.16;;;8.88;100.00
13695;BME280;6919;52.344;14.518;2023-02-19T13:04:50;100988.97;;;9.03;100.00
13695;BME280;6919;52.344;14.518;2023-02-19T13:07:27;100985.63;;;9.50;100.00
13695;BME280;6919;52.344;14.518;2023-02-19T13:10:03;100997.00;;;9.03;100.00
13695;BME280;6919;52.344;14.518;2023-02-19T13:12:36;101004.59;;;8.98;99.65
13695;BME280;6919;52.344;14.518;2023-02-19T13:15:14;101005.53;;;9.27;98.55
13695;BME280;6919;52.344;14.518;2023-02-19T13:17:48;101006.72;;;8.74;96.43
13695;BME280;6919;52.344;14.518;2023-02-19T13:20:28;101015.59;;;8.33;100.00
13695;BME280;6919;52.344;14.518;2023-02-19T13:23:04;101032.63;;;8.53;100.00
13695;BME280;6919;52.344;14.518;2023-02-19T13:26:05;101039.22;;;8.17;100.00
13695;BME280;6919;52.344;14.518;2023-02-19T13:28:50;101046.41;;;7.74;100.00
13695;BME280;6919;52.344;14.518;2023-02-19T13:31:36;101045.94;;;7.69;100.00
13695;BME280;6919;52.344;14.518;2023-02-19T13:34:17;101040.81;;;7.77;100.00